createdAt,value
2022-12-18T00:02:02.800Z,-1.76
2022-12-18T00:04:30.260Z,-1.60
2022-12-18T00:06:57.772Z,-1.61
2022-12-18T00:09:31.335Z,-1.61
2022-12-18T00:14:46.177Z,-1.69
2022-12-18T00:17:14.577Z,-1.65
2022-12-18T00:19:41.820Z,-1.65
2022-12-18T00:22:09.792Z,-1.62
2022-12-18T00:24:37.419Z,-1.67
2022-12-18T00:27:04.743Z,-1.68
2022-12-18T00:29:32.119Z,-1.64
2022-12-18T00:32:00.644Z,-1.69
2022-12-18T00:34:28.120Z,-1.70
2022-12-18T00:36:58.931Z,-1.76
2022-12-18T00:39:26.219Z,-1.76
2022-12-18T00:42:11.848Z,-1.73
2022-12-18T00:44:40.112Z,-1.72
2022-12-18T00:47:09.057Z,-1.67
2022-12-18T00:49:36.737Z,-1.67
2022-12-18T00:52:03.986Z,-1.70
2022-12-18T00:54:31.284Z,-1.67
2022-12-18T00:56:58.646Z,-1.69
2022-12-18T00:59:26.351Z,-1.70
2022-12-18T01:01:54.049Z,-1.69
2022-12-18T01:04:21.481Z,-1.67
2022-12-18T01:06:48.787Z,-1.69
2022-12-18T01:09:17.194Z,-1.70
2022-12-18T01:11:44.720Z,-1.61
2022-12-18T01:14:12.300Z,-1.70
2022-12-18T01:16:39.866Z,-1.65
2022-12-18T01:19:07.451Z,-1.78
2022-12-18T01:21:35.139Z,-1.65
2022-12-18T01:24:05.456Z,-1.68
2022-12-18T01:26:33.012Z,-1.64
2022-12-18T01:29:00.459Z,-1.65
2022-12-18T01:31:31.607Z,-1.65
2022-12-18T01:34:01.531Z,-1.63
2022-12-18T01:36:32.545Z,-1.62
2022-12-18T01:39:06.896Z,-1.77
2022-12-18T01:41:55.196Z,-1.64
2022-12-18T01:45:04.300Z,-1.66
2022-12-18T01:47:40.924Z,-1.73
2022-12-18T01:50:13.318Z,-1.67
2022-12-18T01:52:44.290Z,-1.70
2022-12-18T01:55:14.169Z,-1.68
2022-12-18T01:57:42.670Z,-1.66
2022-12-18T02:00:16.141Z,-1.65
2022-12-18T02:02:45.286Z,-1.81
2022-12-18T02:05:19.533Z,-1.63
2022-12-18T02:08:16.556Z,-1.78
2022-12-18T02:10:54.194Z,-1.66
2022-12-18T02:14:00.183Z,-1.71
2022-12-18T02:16:42.932Z,-1.67
2022-12-18T02:19:38.042Z,-1.72
2022-12-18T02:22:27.696Z,-1.70
2022-12-18T02:25:31.957Z,-1.66
2022-12-18T02:28:03.138Z,-1.65
2022-12-18T02:30:35.400Z,-1.63
2022-12-18T02:33:07.960Z,-1.62
2022-12-18T02:35:37.674Z,-1.64
2022-12-18T02:38:05.957Z,-1.64
2022-12-18T02:40:39.035Z,-1.61
2022-12-18T02:43:15.687Z,-1.64
2022-12-18T02:45:53.683Z,-1.65
2022-12-18T02:48:26.233Z,-1.71
2022-12-18T02:51:14.197Z,-1.64
2022-12-18T02:53:50.971Z,-1.68
2022-12-18T02:56:39.927Z,-1.65
2022-12-18T02:59:14.288Z,-1.64
2022-12-18T03:01:58.484Z,-1.63
2022-12-18T03:04:32.802Z,-1.60
2022-12-18T03:07:09.616Z,-1.60
2022-12-18T03:09:42.651Z,-1.59
2022-12-18T03:12:24.223Z,-1.56
2022-12-18T03:15:17.285Z,-1.54
2022-12-18T03:17:57.090Z,-1.53
2022-12-18T03:20:29.919Z,-1.54
2022-12-18T03:23:04.055Z,-1.58
2022-12-18T03:25:34.548Z,-1.52
2022-12-18T03:28:05.738Z,-1.57
2022-12-18T03:30:38.898Z,-1.50
2022-12-18T03:33:19.148Z,-1.50
2022-12-18T03:35:48.881Z,-1.52
2022-12-18T03:38:19.330Z,-1.49
2022-12-18T03:40:54.861Z,-1.48
2022-12-18T03:43:31.810Z,-1.49
2022-12-18T03:46:09.216Z,-1.53
2022-12-18T03:48:45.940Z,-1.49
2022-12-18T03:51:35.606Z,-1.39
2022-12-18T03:54:06.835Z,-1.45
2022-12-18T03:56:49.844Z,-1.47
2022-12-18T03:59:18.470Z,-1.48
2022-12-18T04:01:53.742Z,-1.62
2022-12-18T04:04:23.491Z,-1.43
2022-12-18T04:06:52.306Z,-1.49
2022-12-18T04:09:22.221Z,-1.39
2022-12-18T04:11:50.035Z,-1.38
2022-12-18T04:14:18.548Z,-1.36
2022-12-18T04:16:50.014Z,-1.31
2022-12-18T04:19:20.173Z,-1.34
2022-12-18T04:21:50.883Z,-1.30
2022-12-18T04:24:19.027Z,-1.28
2022-12-18T04:26:55.720Z,-1.32
2022-12-18T04:29:26.467Z,-1.26
2022-12-18T04:31:53.925Z,-1.25
2022-12-18T04:34:22.451Z,-1.24
2022-12-18T04:36:52.938Z,-1.19
2022-12-18T04:39:21.666Z,-1.25
2022-12-18T04:41:51.104Z,-1.26
2022-12-18T04:44:18.992Z,-1.19
2022-12-18T04:46:46.689Z,-1.13
2022-12-18T04:49:14.291Z,-1.10
2022-12-18T04:51:41.560Z,-1.08
2022-12-18T04:54:09.221Z,-1.08
2022-12-18T04:56:36.614Z,-1.13
2022-12-18T04:59:03.999Z,-1.07
2022-12-18T05:01:34.792Z,-1.03
2022-12-18T05:04:04.278Z,-1.04
2022-12-18T05:06:31.607Z,-1.05
2022-12-18T05:08:59.462Z,-1.05
2022-12-18T05:11:29.223Z,-0.99
2022-12-18T05:13:59.381Z,-0.98
2022-12-18T05:16:26.882Z,-1.04
2022-12-18T05:18:55.705Z,-0.91
2022-12-18T05:21:23.049Z,-0.90
2022-12-18T05:23:51.860Z,-0.87
2022-12-18T05:26:19.935Z,-0.83
2022-12-18T05:28:47.565Z,-0.75
2022-12-18T05:31:15.860Z,-0.72
2022-12-18T05:33:43.446Z,-0.72
2022-12-18T05:36:12.928Z,-0.61
2022-12-18T05:38:40.800Z,-0.58
2022-12-18T05:41:09.085Z,-0.59
2022-12-18T05:43:38.147Z,-0.55
2022-12-18T05:46:12.669Z,-0.58
2022-12-18T05:48:40.554Z,-0.47
2022-12-18T05:51:11.997Z,-0.54
2022-12-18T05:53:40.306Z,-0.31
2022-12-18T05:56:11.024Z,-0.37
2022-12-18T05:58:38.635Z,-0.33
2022-12-18T06:01:28.546Z,-0.32
2022-12-18T06:03:57.144Z,-0.25
2022-12-18T06:06:29.367Z,-0.19
2022-12-18T06:08:57.989Z,-0.12
2022-12-18T06:11:27.621Z,-0.16
2022-12-18T06:13:58.871Z,-0.06
2022-12-18T06:16:28.327Z,0.02
2022-12-18T06:19:00.190Z,0.10
2022-12-18T06:21:29.328Z,0.04
2022-12-18T06:23:57.141Z,0.13
2022-12-18T06:26:28.312Z,0.15
2022-12-18T06:28:56.575Z,0.03
2022-12-18T06:31:24.048Z,0.17
2022-12-18T06:33:51.635Z,0.17
2022-12-18T06:36:19.295Z,0.18
2022-12-18T06:38:47.553Z,0.23
2022-12-18T06:41:21.626Z,0.14
2022-12-18T06:43:48.852Z,0.21
2022-12-18T06:46:16.658Z,0.10
2022-12-18T06:48:44.115Z,0.12
2022-12-18T06:51:12.128Z,0.26
2022-12-18T06:53:41.549Z,0.30
2022-12-18T06:56:10.906Z,0.27
2022-12-18T06:58:40.178Z,0.31
2022-12-18T07:01:10.250Z,0.24
2022-12-18T07:03:39.270Z,0.31
2022-12-18T07:06:07.346Z,0.37
2022-12-18T07:08:35.108Z,0.44
2022-12-18T07:11:05.290Z,0.43
2022-12-18T07:13:33.094Z,0.49
2022-12-18T07:16:18.411Z,0.56
2022-12-18T07:18:49.920Z,0.58
2022-12-18T07:21:20.122Z,0.57
2022-12-18T07:23:49.595Z,0.61
2022-12-18T07:26:19.015Z,0.62
2022-12-18T07:28:47.111Z,0.62
2022-12-18T07:31:17.432Z,0.60
2022-12-18T07:33:47.155Z,0.60
2022-12-18T07:36:15.002Z,0.65
2022-12-18T07:38:42.604Z,0.70
2022-12-18T07:41:13.066Z,0.63
2022-12-18T07:43:42.023Z,0.68
2022-12-18T07:46:15.240Z,0.72
2022-12-18T07:48:43.782Z,0.78
2022-12-18T07:51:13.844Z,0.78
2022-12-18T07:53:42.236Z,0.83
2022-12-18T07:56:30.089Z,0.83
2022-12-18T07:58:59.473Z,0.81
2022-12-18T08:01:27.095Z,0.87
2022-12-18T08:03:54.639Z,0.84
2022-12-18T08:06:24.194Z,0.88
2022-12-18T08:08:57.093Z,0.90
2022-12-18T08:11:26.026Z,0.92
2022-12-18T08:13:55.004Z,0.94
2022-12-18T08:16:23.611Z,1.08
2022-12-18T08:18:53.022Z,1.06
2022-12-18T08:21:24.291Z,1.04
2022-12-18T08:23:53.079Z,1.08
2022-12-18T08:26:21.268Z,1.23
2022-12-18T08:28:52.825Z,1.19
2022-12-18T08:31:22.037Z,1.19
2022-12-18T08:33:53.813Z,1.25
2022-12-18T08:36:24.240Z,1.29
2022-12-18T08:38:52.270Z,1.30
2022-12-18T08:41:22.361Z,1.43
2022-12-18T08:44:09.069Z,1.40
2022-12-18T08:46:39.569Z,1.51
2022-12-18T08:49:08.722Z,1.64
2022-12-18T08:51:37.210Z,1.62
2022-12-18T08:54:06.509Z,1.51
2022-12-18T08:56:34.730Z,1.70
2022-12-18T08:59:02.862Z,1.73
2022-12-18T09:01:30.401Z,1.79
2022-12-18T09:03:58.629Z,1.74
2022-12-18T09:06:26.742Z,1.76
2022-12-18T09:08:54.520Z,1.79
2022-12-18T09:11:28.043Z,1.82
2022-12-18T09:13:56.786Z,1.88
2022-12-18T09:16:31.636Z,1.88
2022-12-18T09:19:03.349Z,1.90
2022-12-18T09:21:35.120Z,1.83
2022-12-18T09:24:05.007Z,1.97
2022-12-18T09:26:35.289Z,1.93
2022-12-18T09:29:03.786Z,1.94
2022-12-18T09:31:31.142Z,2.01
2022-12-18T09:33:58.553Z,2.15
2022-12-18T09:36:26.482Z,2.31
2022-12-18T09:38:54.754Z,2.39
2022-12-18T09:41:58.687Z,2.51
2022-12-18T09:44:45.032Z,2.61
2022-12-18T09:47:15.809Z,2.84
2022-12-18T09:49:49.047Z,2.84
2022-12-18T09:52:23.237Z,3.05
2022-12-18T09:55:00.926Z,3.09
2022-12-18T09:57:28.435Z,3.39
2022-12-18T10:00:08.517Z,3.50
2022-12-18T10:02:38.906Z,3.67
2022-12-18T10:05:15.521Z,3.83
2022-12-18T10:07:48.526Z,3.97
2022-12-18T10:10:32.124Z,4.05
2022-12-18T10:13:27.917Z,4.20
2022-12-18T10:16:05.592Z,4.25
2022-12-18T10:18:48.886Z,4.08
2022-12-18T10:21:41.784Z,4.20
2022-12-18T10:24:43.348Z,4.36
2022-12-18T10:27:22.758Z,4.33
2022-12-18T10:29:50.641Z,4.01
2022-12-18T10:32:24.121Z,3.83
2022-12-18T10:34:58.288Z,4.13
2022-12-18T10:37:33.974Z,3.98
2022-12-18T10:40:22.264Z,4.16
2022-12-18T10:43:17.476Z,4.39
2022-12-18T10:46:03.337Z,4.25
2022-12-18T10:48:32.335Z,4.57
2022-12-18T10:51:10.861Z,4.87
2022-12-18T10:53:42.893Z,4.94
2022-12-18T10:56:10.931Z,4.97
2022-12-18T10:58:42.039Z,5.08
2022-12-18T11:01:18.677Z,5.12
2022-12-18T11:04:01.788Z,5.26
2022-12-18T11:06:30.031Z,5.41
2022-12-18T11:09:21.253Z,5.31
2022-12-18T11:11:58.467Z,5.29
2022-12-18T11:14:29.475Z,5.38
2022-12-18T11:17:24.918Z,5.25
2022-12-18T11:19:57.093Z,5.00
2022-12-18T11:22:34.448Z,5.16
2022-12-18T11:25:32.436Z,5.39
2022-12-18T11:28:02.540Z,5.52
2022-12-18T11:30:38.393Z,5.75
2022-12-18T11:33:18.568Z,5.87
2022-12-18T11:35:58.378Z,6.06
2022-12-18T11:38:31.548Z,6.19
2022-12-18T11:41:52.090Z,6.45
2022-12-18T11:44:38.531Z,6.65
2022-12-18T11:47:21.154Z,6.63
2022-12-18T11:49:51.159Z,6.53
2022-12-18T11:52:33.086Z,7.14
2022-12-18T11:55:22.203Z,7.23
2022-12-18T11:58:04.468Z,7.28
2022-12-18T12:00:44.508Z,7.41
2022-12-18T12:03:28.270Z,7.47
2022-12-18T12:06:16.004Z,7.62
2022-12-18T12:09:00.531Z,7.91
2022-12-18T12:12:16.816Z,8.04
2022-12-18T12:15:37.478Z,8.22
2022-12-18T12:18:15.426Z,8.08
2022-12-18T12:21:10.970Z,8.12
2022-12-18T12:24:13.665Z,8.33
2022-12-18T12:26:53.906Z,8.19
2022-12-18T12:29:42.939Z,8.52
2022-12-18T12:32:48.069Z,8.52
2022-12-18T12:35:22.153Z,8.68
2022-12-18T12:37:58.440Z,8.65
2022-12-18T12:43:29.895Z,8.83
2022-12-18T12:46:02.521Z,8.69
2022-12-18T12:48:39.598Z,8.81
2022-12-18T12:51:33.297Z,8.79
2022-12-18T12:54:03.346Z,8.88
2022-12-18T12:56:57.038Z,9.12
2022-12-18T12:59:31.566Z,9.19
2022-12-18T13:02:24.581Z,9.20
2022-12-18T13:05:06.484Z,9.43
2022-12-18T13:08:22.938Z,9.41
2022-12-18T13:11:14.661Z,9.45
2022-12-18T13:13:56.558Z,9.54
2022-12-18T13:16:33.715Z,9.50
2022-12-18T13:19:01.434Z,9.46
2022-12-18T13:21:35.480Z,9.53
2022-12-18T13:24:27.336Z,9.54
2022-12-18T13:26:56.420Z,9.49
2022-12-18T13:29:44.747Z,9.54
2022-12-18T13:32:27.552Z,9.20
2022-12-18T13:35:25.122Z,9.41
2022-12-18T13:37:55.499Z,9.27
2022-12-18T13:40:42.851Z,9.34
2022-12-18T13:43:23.030Z,9.41
2022-12-18T13:46:25.019Z,9.49
2022-12-18T13:49:00.173Z,9.38
2022-12-18T13:51:36.494Z,9.19
2022-12-18T13:54:36.551Z,9.29
2022-12-18T13:57:26.427Z,9.38
2022-12-18T13:59:54.270Z,9.39
2022-12-18T14:02:29.447Z,9.25
2022-12-18T14:04:57.083Z,9.33
2022-12-18T14:07:26.677Z,9.38
2022-12-18T14:10:41.154Z,9.49
2022-12-18T14:13:00.934Z,9.56
2022-12-18T14:15:41.682Z,9.61
2022-12-18T14:18:23.474Z,9.58
2022-12-18T14:21:00.712Z,9.52
2022-12-18T14:23:33.339Z,9.66
2022-12-18T14:26:06.072Z,9.64
2022-12-18T14:28:33.997Z,9.61
2022-12-18T14:31:01.689Z,9.53
2022-12-18T14:33:29.442Z,9.60
2022-12-18T14:36:00.492Z,9.56
2022-12-18T14:38:39.439Z,9.50
2022-12-18T14:41:15.659Z,9.34
2022-12-18T14:43:45.199Z,9.35
2022-12-18T14:46:37.413Z,9.39
2022-12-18T14:49:34.069Z,9.31
2022-12-18T14:52:07.695Z,9.29
2022-12-18T14:54:38.926Z,9.28
2022-12-18T14:57:20.085Z,9.28
2022-12-18T14:59:47.481Z,9.19
2022-12-18T15:02:28.841Z,9.23
2022-12-18T15:05:12.660Z,9.22
2022-12-18T15:07:55.418Z,9.25
2022-12-18T15:10:31.946Z,9.22
2022-12-18T15:13:03.973Z,9.23
2022-12-18T15:15:39.049Z,9.06
2022-12-18T15:18:16.959Z,9.18
2022-12-18T15:20:56.558Z,9.09
2022-12-18T15:23:26.067Z,9.04
2022-12-18T15:26:07.236Z,9.07
2022-12-18T15:28:44.642Z,8.98
2022-12-18T15:31:14.712Z,8.92
2022-12-18T15:33:54.632Z,8.83
2022-12-18T15:36:26.713Z,8.88
2022-12-18T15:39:04.704Z,8.69
2022-12-18T15:41:38.276Z,8.77
2022-12-18T15:44:24.644Z,8.68
2022-12-18T15:46:54.316Z,8.61
2022-12-18T15:49:23.386Z,8.54
2022-12-18T15:51:54.787Z,8.47
2022-12-18T15:54:41.220Z,8.47
2022-12-18T15:57:25.219Z,8.38
2022-12-18T15:59:54.767Z,8.26
2022-12-18T16:02:24.169Z,8.16
2022-12-18T16:05:02.702Z,8.24
2022-12-18T16:07:30.868Z,8.27
2022-12-18T16:10:00.405Z,8.15
2022-12-18T16:12:30.037Z,8.17
2022-12-18T16:14:57.471Z,8.09
2022-12-18T16:17:25.418Z,8.08
2022-12-18T16:19:52.869Z,8.09
2022-12-18T16:22:28.123Z,8.03
2022-12-18T16:25:01.979Z,7.99
2022-12-18T16:27:32.675Z,7.99
2022-12-18T16:30:00.370Z,7.94
2022-12-18T16:32:28.217Z,7.78
2022-12-18T16:35:02.318Z,7.81
2022-12-18T16:37:29.915Z,7.79
2022-12-18T16:40:01.264Z,7.78
2022-12-18T16:42:29.453Z,7.77
2022-12-18T16:44:57.097Z,7.76
2022-12-18T16:47:24.784Z,7.73
2022-12-18T16:49:53.588Z,7.73
2022-12-18T16:52:23.263Z,7.86
2022-12-18T16:54:50.550Z,7.76
2022-12-18T16:57:20.208Z,7.70
2022-12-18T16:59:51.949Z,7.59
2022-12-18T17:02:25.039Z,7.57
2022-12-18T17:04:57.692Z,7.56
2022-12-18T17:07:26.987Z,7.47
2022-12-18T17:09:54.813Z,7.51
2022-12-18T17:12:23.425Z,7.48
2022-12-18T17:14:50.966Z,7.47
2022-12-18T17:17:21.491Z,7.36
2022-12-18T17:19:51.179Z,7.37
2022-12-18T17:22:18.777Z,7.31
2022-12-18T17:24:47.921Z,7.44
2022-12-18T17:27:16.110Z,7.44
2022-12-18T17:29:48.086Z,7.38
2022-12-18T17:32:17.745Z,7.42
2022-12-18T17:34:46.063Z,7.30
2022-12-18T17:37:13.862Z,7.34
2022-12-18T17:39:41.658Z,7.29
2022-12-18T17:42:14.986Z,7.24
2022-12-18T17:44:43.755Z,7.28
2022-12-18T17:47:13.587Z,7.27
2022-12-18T17:49:41.554Z,7.48
2022-12-18T17:52:09.766Z,7.35
2022-12-18T17:54:40.185Z,7.32
2022-12-18T17:57:07.812Z,7.21
2022-12-18T17:59:35.410Z,7.36
2022-12-18T18:02:03.006Z,7.28
2022-12-18T18:04:32.857Z,7.22
2022-12-18T18:07:01.163Z,7.24
2022-12-18T18:09:28.580Z,7.38
2022-12-18T18:12:15.514Z,7.38
2022-12-18T18:14:43.067Z,7.30
2022-12-18T18:17:11.225Z,7.42
2022-12-18T18:19:38.801Z,7.56
2022-12-18T18:22:07.401Z,7.50
2022-12-18T18:24:35.257Z,7.51
2022-12-18T18:27:03.266Z,7.44
2022-12-18T18:29:30.848Z,7.45
2022-12-18T18:32:23.923Z,7.42
2022-12-18T18:34:51.300Z,7.34
2022-12-18T18:37:19.499Z,7.45
2022-12-18T18:39:46.911Z,7.47
2022-12-18T18:42:14.342Z,7.51
2022-12-18T18:44:45.865Z,7.46
2022-12-18T18:47:16.345Z,7.42
2022-12-18T18:49:43.960Z,7.48
2022-12-18T18:52:11.364Z,7.51
2022-12-18T18:54:51.895Z,7.45
2022-12-18T18:57:30.276Z,7.39
2022-12-18T18:59:58.173Z,7.43
2022-12-18T19:02:25.932Z,7.52
2022-12-18T19:04:53.199Z,7.53
2022-12-18T19:07:29.576Z,7.55
2022-12-18T19:10:04.527Z,7.48
2022-12-18T19:12:51.026Z,7.54
2022-12-18T19:15:18.537Z,7.68
2022-12-18T19:17:47.376Z,7.70
2022-12-18T19:20:15.488Z,7.65
2022-12-18T19:22:43.220Z,7.53
2022-12-18T19:25:12.668Z,7.49
2022-12-18T19:27:40.578Z,7.52
2022-12-18T19:30:08.688Z,7.59
2022-12-18T19:32:36.363Z,7.58
2022-12-18T19:35:04.393Z,7.52
2022-12-18T19:37:32.099Z,7.62
2022-12-18T19:39:59.651Z,7.48
2022-12-18T19:42:35.330Z,7.47
2022-12-18T19:45:03.177Z,7.45
2022-12-18T19:47:32.167Z,7.41
2022-12-18T19:49:59.488Z,7.35
2022-12-18T19:52:27.088Z,7.37
2022-12-18T19:54:54.693Z,7.37
2022-12-18T19:57:21.992Z,7.34
2022-12-18T19:59:49.183Z,7.27
2022-12-18T20:02:16.660Z,7.35
2022-12-18T20:04:44.212Z,7.19
2022-12-18T20:07:12.308Z,7.30
2022-12-18T20:09:39.901Z,7.29
2022-12-18T20:12:08.416Z,7.29
2022-12-18T20:14:35.707Z,7.16
2022-12-18T20:17:04.055Z,7.26
2022-12-18T20:19:35.811Z,7.09
2022-12-18T20:22:04.542Z,7.06
2022-12-18T20:24:32.069Z,7.08
2022-12-18T20:27:00.015Z,7.11
2022-12-18T20:29:27.339Z,7.04
2022-12-18T20:31:55.066Z,6.99
2022-12-18T20:34:22.444Z,7.06
2022-12-18T20:36:50.149Z,7.02
2022-12-18T20:39:19.197Z,7.00
2022-12-18T20:41:47.870Z,6.95
2022-12-18T20:44:22.878Z,7.10
2022-12-18T20:47:01.160Z,6.96
2022-12-18T20:49:32.292Z,6.91
2022-12-18T20:52:00.322Z,7.00
2022-12-18T20:54:28.196Z,7.00
2022-12-18T20:56:56.678Z,7.02
2022-12-18T20:59:26.655Z,6.94
2022-12-18T21:01:55.007Z,6.89
2022-12-18T21:04:24.095Z,6.88
2022-12-18T21:06:59.100Z,6.83
2022-12-18T21:09:37.635Z,7.02
2022-12-18T21:12:30.201Z,6.89
2022-12-18T21:15:03.015Z,6.96
2022-12-18T21:20:27.485Z,6.84
2022-12-18T21:22:56.407Z,6.76
2022-12-18T21:25:32.843Z,6.69
2022-12-18T21:28:00.953Z,6.62
2022-12-18T21:30:28.850Z,6.68
2022-12-18T21:32:56.658Z,6.67
2022-12-18T21:35:24.547Z,6.66
2022-12-18T21:37:54.435Z,6.72
2022-12-18T21:40:21.820Z,6.71
2022-12-18T21:43:07.741Z,6.79
2022-12-18T21:45:34.948Z,6.67
2022-12-18T21:48:02.601Z,6.72
2022-12-18T21:50:33.617Z,6.79
2022-12-18T21:53:04.841Z,6.83
2022-12-18T21:55:35.846Z,6.75
2022-12-18T21:58:03.872Z,6.83
2022-12-18T22:00:31.294Z,6.78
2022-12-18T22:03:12.675Z,6.70
2022-12-18T22:05:47.529Z,6.74
2022-12-18T22:08:28.273Z,6.83
2022-12-18T22:10:56.240Z,6.80
2022-12-18T22:13:24.938Z,6.76
2022-12-18T22:15:53.302Z,6.76
2022-12-18T22:18:21.929Z,6.76
2022-12-18T22:20:50.049Z,6.84
2022-12-18T22:23:17.809Z,6.76
2022-12-18T22:25:45.481Z,6.73
2022-12-18T22:28:31.673Z,6.82
2022-12-18T22:31:02.695Z,6.80
2022-12-18T22:33:30.581Z,6.88
2022-12-18T22:35:58.582Z,6.86
2022-12-18T22:38:26.846Z,6.74
2022-12-18T22:40:55.795Z,6.67
2022-12-18T22:43:30.140Z,6.74
2022-12-18T22:46:02.323Z,6.64
2022-12-18T22:48:30.851Z,6.74
2022-12-18T22:50:59.528Z,6.64
2022-12-18T22:53:28.002Z,6.62
2022-12-18T22:56:03.698Z,6.59
2022-12-18T22:58:31.279Z,6.56
2022-12-18T23:00:58.754Z,6.53
2022-12-18T23:03:26.908Z,6.66
2022-12-18T23:05:54.564Z,6.69
2022-12-18T23:08:23.133Z,6.65
2022-12-18T23:10:53.446Z,6.69
2022-12-18T23:13:21.176Z,6.68
2022-12-18T23:15:48.914Z,6.66
2022-12-18T23:18:16.252Z,6.52
2022-12-18T23:20:43.705Z,6.67
2022-12-18T23:23:11.935Z,6.64
2022-12-18T23:25:41.249Z,6.62
2022-12-18T23:28:08.618Z,6.60
2022-12-18T23:30:36.106Z,6.61
2022-12-18T23:33:03.950Z,6.69
2022-12-18T23:35:31.706Z,6.78
2022-12-18T23:37:59.973Z,6.73
2022-12-18T23:40:28.353Z,6.75
2022-12-18T23:42:56.143Z,6.83
2022-12-18T23:45:23.516Z,6.89
2022-12-18T23:47:51.356Z,6.76
2022-12-18T23:50:18.810Z,6.87
2022-12-18T23:52:48.325Z,6.78
2022-12-18T23:55:15.679Z,6.78
2022-12-18T23:57:43.246Z,6.78
